sensor_id;sensor_type;location;lat;lon;timestamp;pressure;altitude;pressure_sealevel;temperature;humidity
12879;BME280;20617;49.476;10.986;2023-07-20T00:01:02;98014.91;;;20.77;100.00
12879;BME280;20617;49.476;10.986;2023-07-20T00:03:11;98023.69;;;20.78;100.00
12879;BME280;20617;49.476;10.986;2023-07-20T00:05:21;98030.19;;;20.74;100.00
12879;BME280;20617;49.476;10.986;2023-07-20T00:07:30;98025.34;;;20.79;100.00
12879;BME280;20617;49.476;10.986;2023-07-20T00:09:36;98014.38;;;20.84;100.00
12879;BME280;20617;49.476;10.986;2023-07-20T00:11:48;98010.34;;;20.89;100.00
12879;BME280;20617;49.476;10.986;2023-07-20T00:13:54;98017.56;;;20.87;100.00
12879;BME280;20617;49.476;10.986;2023-07-20T00:15:59;98017.19;;;20.92;100.00
12879;BME280;20617;49.476;10.986;2023-07-20T00:18:04;98022.19;;;20.95;100.00
12879;BME280;20617;49.476;10.986;2023-07-20T00:20:08;98015.09;;;20.95;100.00
12879;BME280;20617;49.476;10.986;2023-07-20T00:22:18;98023.75;;;20.97;100.00
12879;BME280;20617;49.476;10.986;2023-07-20T00:24:23;98015.94;;;20.96;100.00
12879;BME280;20617;49.476;10.986;2023-07-20T00:26:30;98015.81;;;20.97;100.00
12879;BME280;20617;49.476;10.986;2023-07-20T00:28:35;98010.75;;;20.85;100.00
12879;BME280;20617;49.476;10.986;2023-07-20T00:30:40;98002.78;;;20.75;100.00
12879;BME280;20617;49.476;10.986;2023-07-20T00:32:45;97994.94;;;20.54;100.00
12879;BME280;20617;49.476;10.986;2023-07-20T00:34:52;97980.97;;;20.52;100.00
12879;BME280;20617;49.476;10.986;2023-07-20T00:36:57;97987.81;;;20.54;100.00
12879;BME280;20617;49.476;10.986;2023-07-20T00:39:05;97994.13;;;20.63;100.00
12879;BME280;20617;49.476;10.986;2023-07-20T00:41:10;97993.13;;;20.64;100.00
12879;BME280;20617;49.476;10.986;2023-07-20T00:43:15;97986.88;;;20.65;100.00
12879;BME280;20617;49.476;10.986;2023-07-20T00:45:21;98001.91;;;20.65;100.00
12879;BME280;20617;49.476;10.986;2023-07-20T00:47:29;98020.31;;;20.66;100.00
12879;BME280;20617;49.476;10.986;2023-07-20T00:49:34;98024.03;;;20.64;100.00
12879;BME280;20617;49.476;10.986;2023-07-20T00:51:39;98019.03;;;20.61;100.00
12879;BME280;20617;49.476;10.986;2023-07-20T00:53:44;98014.97;;;20.56;100.00
12879;BME280;20617;49.476;10.986;2023-07-20T00:55:52;98006.06;;;20.57;100.00
12879;BME280;20617;49.476;10.986;2023-07-20T00:57:57;98006.19;;;20.56;100.00
12879;BME280;20617;49.476;10.986;2023-07-20T01:00:03;98006.34;;;20.54;100.00
12879;BME280;20617;49.476;10.986;2023-07-20T01:02:08;98014.84;;;20.58;100.00
12879;BME280;20617;49.476;10.986;2023-07-20T01:04:15;98007.34;;;20.63;100.00
12879;BME280;20617;49.476;10.986;2023-07-20T01:06:26;98004.28;;;20.68;100.00
12879;BME280;20617;49.476;10.986;2023-07-20T01:08:40;97999.44;;;20.73;100.00
12879;BME280;20617;49.476;10.986;2023-07-20T01:10:53;98002.06;;;20.73;100.00
12879;BME280;20617;49.476;10.986;2023-07-20T01:13:00;97992.47;;;20.72;100.00
12879;BME280;20617;49.476;10.986;2023-07-20T01:15:07;97991.06;;;20.68;100.00
12879;BME280;20617;49.476;10.986;2023-07-20T01:17:12;97998.44;;;20.64;100.00
12879;BME280;20617;49.476;10.986;2023-07-20T01:19:18;98003.00;;;20.62;100.00
12879;BME280;20617;49.476;10.986;2023-07-20T01:21:24;98000.44;;;20.51;100.00
12879;BME280;20617;49.476;10.986;2023-07-20T01:26:34;98007.50;;;20.41;100.00
12879;BME280;20617;49.476;10.986;2023-07-20T01:29:08;98010.41;;;20.38;100.00
12879;BME280;20617;49.476;10.986;2023-07-20T01:31:21;98013.75;;;20.40;100.00
12879;BME280;20617;49.476;10.986;2023-07-20T01:33:30;98010.41;;;20.38;100.00
12879;BME280;20617;49.476;10.986;2023-07-20T01:35:36;98012.94;;;20.39;100.00
12879;BME280;20617;49.476;10.986;2023-07-20T01:37:43;98014.97;;;20.35;100.00
12879;BME280;20617;49.476;10.986;2023-07-20T01:39:49;98012.75;;;20.31;100.00
12879;BME280;20617;49.476;10.986;2023-07-20T01:41:57;98014.09;;;20.25;100.00
12879;BME280;20617;49.476;10.986;2023-07-20T01:44:03;98018.75;;;20.12;100.00
12879;BME280;20617;49.476;10.986;2023-07-20T01:46:08;98027.84;;;19.98;100.00
12879;BME280;20617;49.476;10.986;2023-07-20T01:48:15;98044.56;;;19.99;100.00
12879;BME280;20617;49.476;10.986;2023-07-20T01:50:23;98039.38;;;19.97;100.00
12879;BME280;20617;49.476;10.986;2023-07-20T01:52:28;98054.81;;;19.81;100.00
12879;BME280;20617;49.476;10.986;2023-07-20T01:54:31;98058.19;;;19.83;100.00
12879;BME280;20617;49.476;10.986;2023-07-20T01:56:36;98065.78;;;19.76;100.00
12879;BME280;20617;49.476;10.986;2023-07-20T01:58:41;98072.19;;;19.62;100.00
12879;BME280;20617;49.476;10.986;2023-07-20T02:00:44;98078.53;;;19.60;100.00
12879;BME280;20617;49.476;10.986;2023-07-20T02:02:49;98087.81;;;19.54;100.00
12879;BME280;20617;49.476;10.986;2023-07-20T02:04:54;98088.75;;;19.64;100.00
12879;BME280;20617;49.476;10.986;2023-07-20T02:06:59;98080.81;;;19.76;100.00
12879;BME280;20617;49.476;10.986;2023-07-20T02:09:04;98076.56;;;19.84;100.00
12879;BME280;20617;49.476;10.986;2023-07-20T02:11:09;98078.81;;;19.89;100.00
12879;BME280;20617;49.476;10.986;2023-07-20T02:13:14;98078.69;;;19.90;100.00
12879;BME280;20617;49.476;10.986;2023-07-20T02:15:20;98076.06;;;19.90;100.00
12879;BME280;20617;49.476;10.986;2023-07-20T02:17:29;98077.47;;;19.95;100.00
12879;BME280;20617;49.476;10.986;2023-07-20T02:19:34;98078.19;;;19.97;100.00
12879;BME280;20617;49.476;10.986;2023-07-20T02:21:42;98080.81;;;19.97;100.00
12879;BME280;20617;49.476;10.986;2023-07-20T02:23:47;98080.88;;;19.85;100.00
12879;BME280;20617;49.476;10.986;2023-07-20T02:25:52;98084.94;;;19.89;100.00
12879;BME280;20617;49.476;10.986;2023-07-20T02:27:57;98083.06;;;19.80;100.00
12879;BME280;20617;49.476;10.986;2023-07-20T02:30:04;98085.84;;;19.79;100.00
12879;BME280;20617;49.476;10.986;2023-07-20T02:32:11;98082.94;;;19.82;100.00
12879;BME280;20617;49.476;10.986;2023-07-20T02:34:18;98087.13;;;19.84;100.00
12879;BME280;20617;49.476;10.986;2023-07-20T02:36:22;98081.03;;;19.84;100.00
12879;BME280;20617;49.476;10.986;2023-07-20T02:38:31;98080.03;;;19.85;100.00
12879;BME280;20617;49.476;10.986;2023-07-20T02:40:36;98082.69;;;19.85;100.00
12879;BME280;20617;49.476;10.986;2023-07-20T02:42:43;98083.97;;;19.90;100.00
12879;BME280;20617;49.476;10.986;2023-07-20T02:44:48;98085.03;;;19.99;100.00
12879;BME280;20617;49.476;10.986;2023-07-20T02:46:53;98081.97;;;20.04;100.00
12879;BME280;20617;49.476;10.986;2023-07-20T02:48:58;98069.78;;;20.12;100.00
12879;BME280;20617;49.476;10.986;2023-07-20T02:51:03;98069.41;;;20.17;100.00
12879;BME280;20617;49.476;10.986;2023-07-20T02:53:09;98069.22;;;20.09;100.00
12879;BME280;20617;49.476;10.986;2023-07-20T02:55:17;98076.78;;;19.93;100.00
12879;BME280;20617;49.476;10.986;2023-07-20T02:57:22;98086.41;;;19.82;100.00
12879;BME280;20617;49.476;10.986;2023-07-20T02:59:27;98095.09;;;19.73;100.00
12879;BME280;20617;49.476;10.986;2023-07-20T03:01:32;98094.78;;;19.66;100.00
12879;BME280;20617;49.476;10.986;2023-07-20T03:03:37;98100.50;;;19.60;100.00
12879;BME280;20617;49.476;10.986;2023-07-20T03:05:42;98091.53;;;19.52;100.00
12879;BME280;20617;49.476;10.986;2023-07-20T03:07:47;98089.94;;;19.60;100.00
12879;BME280;20617;49.476;10.986;2023-07-20T03:09:51;98089.25;;;19.70;100.00
12879;BME280;20617;49.476;10.986;2023-07-20T03:12:00;98091.63;;;19.73;100.00
12879;BME280;20617;49.476;10.986;2023-07-20T03:14:09;98094.84;;;19.76;100.00
12879;BME280;20617;49.476;10.986;2023-07-20T03:16:19;98095.44;;;19.80;100.00
12879;BME280;20617;49.476;10.986;2023-07-20T03:18:22;98101.44;;;19.82;100.00
12879;BME280;20617;49.476;10.986;2023-07-20T03:20:29;98100.13;;;19.76;100.00
12879;BME280;20617;49.476;10.986;2023-07-20T03:22:34;98096.19;;;19.71;100.00
12879;BME280;20617;49.476;10.986;2023-07-20T03:24:39;98106.78;;;19.48;100.00
12879;BME280;20617;49.476;10.986;2023-07-20T03:26:44;98112.44;;;19.43;100.00
12879;BME280;20617;49.476;10.986;2023-07-20T03:28:52;98122.06;;;19.33;100.00
12879;BME280;20617;49.476;10.986;2023-07-20T03:30:57;98123.28;;;19.29;100.00
12879;BME280;20617;49.476;10.986;2023-07-20T03:33:06;98131.06;;;19.31;100.00
12879;BME280;20617;49.476;10.986;2023-07-20T03:35:11;98125.53;;;19.34;100.00
12879;BME280;20617;49.476;10.986;2023-07-20T03:37:20;98129.22;;;19.42;100.00
12879;BME280;20617;49.476;10.986;2023-07-20T03:39:30;98119.72;;;19.51;100.00
12879;BME280;20617;49.476;10.986;2023-07-20T03:41:38;98120.72;;;19.50;100.00
12879;BME280;20617;49.476;10.986;2023-07-20T03:43:46;98129.34;;;19.52;100.00
12879;BME280;20617;49.476;10.986;2023-07-20T03:45:51;98126.31;;;19.57;100.00
12879;BME280;20617;49.476;10.986;2023-07-20T03:47:56;98115.91;;;19.66;100.00
12879;BME280;20617;49.476;10.986;2023-07-20T03:50:03;98114.16;;;19.77;100.00
12879;BME280;20617;49.476;10.986;2023-07-20T03:52:08;98111.31;;;19.68;100.00
12879;BME280;20617;49.476;10.986;2023-07-20T03:54:13;98115.03;;;19.66;100.00
12879;BME280;20617;49.476;10.986;2023-07-20T03:56:21;98110.63;;;19.66;100.00
12879;BME280;20617;49.476;10.986;2023-07-20T03:58:27;98119.28;;;19.46;100.00
12879;BME280;20617;49.476;10.986;2023-07-20T04:00:32;98131.19;;;19.40;100.00
12879;BME280;20617;49.476;10.986;2023-07-20T04:02:42;98126.38;;;19.34;100.00
12879;BME280;20617;49.476;10.986;2023-07-20T04:04:47;98133.34;;;19.35;100.00
12879;BME280;20617;49.476;10.986;2023-07-20T04:06:50;98139.22;;;19.39;100.00
12879;BME280;20617;49.476;10.986;2023-07-20T04:08:55;98132.97;;;19.40;100.00
12879;BME280;20617;49.476;10.986;2023-07-20T04:11:01;98137.16;;;19.42;100.00
12879;BME280;20617;49.476;10.986;2023-07-20T04:13:06;98130.28;;;19.51;100.00
12879;BME280;20617;49.476;10.986;2023-07-20T04:15:11;98135.81;;;19.48;100.00
12879;BME280;20617;49.476;10.986;2023-07-20T04:17:14;98134.50;;;19.42;100.00
12879;BME280;20617;49.476;10.986;2023-07-20T04:19:22;98146.03;;;19.41;100.00
12879;BME280;20617;49.476;10.986;2023-07-20T04:21:27;98149.78;;;19.28;100.00
12879;BME280;20617;49.476;10.986;2023-07-20T04:23:32;98159.59;;;19.26;100.00
12879;BME280;20617;49.476;10.986;2023-07-20T04:25:39;98153.16;;;19.18;100.00
12879;BME280;20617;49.476;10.986;2023-07-20T04:27:46;98160.59;;;19.13;100.00
12879;BME280;20617;49.476;10.986;2023-07-20T04:29:52;98164.31;;;19.11;100.00
12879;BME280;20617;49.476;10.986;2023-07-20T04:31:57;98166.00;;;19.12;100.00
12879;BME280;20617;49.476;10.986;2023-07-20T04:34:05;98165.84;;;19.13;100.00
12879;BME280;20617;49.476;10.986;2023-07-20T04:36:13;98169.34;;;19.14;100.00
12879;BME280;20617;49.476;10.986;2023-07-20T04:38:23;98161.41;;;19.14;100.00
12879;BME280;20617;49.476;10.986;2023-07-20T04:40:50;98164.91;;;19.14;100.00
12879;BME280;20617;49.476;10.986;2023-07-20T04:42:55;98176.06;;;19.18;100.00
12879;BME280;20617;49.476;10.986;2023-07-20T04:45:00;98168.25;;;19.16;100.00
12879;BME280;20617;49.476;10.986;2023-07-20T04:47:07;98167.56;;;19.14;100.00
12879;BME280;20617;49.476;10.986;2023-07-20T04:49:13;98168.88;;;19.20;100.00
12879;BME280;20617;49.476;10.986;2023-07-20T04:51:22;98167.78;;;19.22;100.00
12879;BME280;20617;49.476;10.986;2023-07-20T04:53:29;98176.78;;;19.20;100.00
12879;BME280;20617;49.476;10.986;2023-07-20T04:55:36;98163.34;;;19.23;100.00
12879;BME280;20617;49.476;10.986;2023-07-20T04:57:42;98170.78;;;19.29;100.00
12879;BME280;20617;49.476;10.986;2023-07-20T04:59:47;98165.34;;;19.42;100.00
12879;BME280;20617;49.476;10.986;2023-07-20T05:01:52;98160.56;;;19.47;100.00
12879;BME280;20617;49.476;10.986;2023-07-20T05:03:57;98157.22;;;19.34;100.00
12879;BME280;20617;49.476;10.986;2023-07-20T05:06:03;98151.19;;;19.43;100.00
12879;BME280;20617;49.476;10.986;2023-07-20T05:08:10;98155.88;;;19.51;100.00
12879;BME280;20617;49.476;10.986;2023-07-20T05:10:17;98150.47;;;19.52;100.00
12879;BME280;20617;49.476;10.986;2023-07-20T05:12:24;98157.19;;;19.56;100.00
12879;BME280;20617;49.476;10.986;2023-07-20T05:14:29;98156.94;;;19.59;100.00
12879;BME280;20617;49.476;10.986;2023-07-20T05:16:34;98155.75;;;19.52;100.00
12879;BME280;20617;49.476;10.986;2023-07-20T05:18:41;98158.91;;;19.46;100.00
12879;BME280;20617;49.476;10.986;2023-07-20T05:20:47;98162.84;;;19.40;100.00
12879;BME280;20617;49.476;10.986;2023-07-20T05:22:51;98159.16;;;19.32;100.00
12879;BME280;20617;49.476;10.986;2023-07-20T05:25:00;98175.94;;;19.19;100.00
12879;BME280;20617;49.476;10.986;2023-07-20T05:27:02;98164.44;;;19.20;100.00
12879;BME280;20617;49.476;10.986;2023-07-20T05:29:07;98165.75;;;19.15;100.00
12879;BME280;20617;49.476;10.986;2023-07-20T05:31:13;98165.63;;;19.16;100.00
12879;BME280;20617;49.476;10.986;2023-07-20T05:33:20;98168.50;;;19.25;100.00
12879;BME280;20617;49.476;10.986;2023-07-20T05:35:28;98170.91;;;19.28;100.00
12879;BME280;20617;49.476;10.986;2023-07-20T05:37:33;98166.69;;;19.25;100.00
12879;BME280;20617;49.476;10.986;2023-07-20T05:39:38;98168.50;;;19.25;100.00
12879;BME280;20617;49.476;10.986;2023-07-20T05:41:46;98160.00;;;19.21;100.00
12879;BME280;20617;49.476;10.986;2023-07-20T05:43:53;98155.53;;;19.21;100.00
12879;BME280;20617;49.476;10.986;2023-07-20T05:46:01;98158.28;;;19.31;100.00
12879;BME280;20617;49.476;10.986;2023-07-20T05:48:08;98144.50;;;19.28;100.00
12879;BME280;20617;49.476;10.986;2023-07-20T05:50:11;98151.69;;;19.37;100.00
12879;BME280;20617;49.476;10.986;2023-07-20T05:52:18;98146.19;;;19.29;100.00
12879;BME280;20617;49.476;10.986;2023-07-20T05:54:24;98147.47;;;19.34;100.00
12879;BME280;20617;49.476;10.986;2023-07-20T05:56:30;98144.25;;;19.31;100.00
12879;BME280;20617;49.476;10.986;2023-07-20T05:58:37;98146.06;;;19.08;100.00
12879;BME280;20617;49.476;10.986;2023-07-20T06:00:42;98149.78;;;19.05;100.00
12879;BME280;20617;49.476;10.986;2023-07-20T06:02:47;98158.81;;;19.03;100.00
12879;BME280;20617;49.476;10.986;2023-07-20T06:04:54;98149.69;;;19.07;100.00
12879;BME280;20617;49.476;10.986;2023-07-20T06:06:59;98165.16;;;19.11;100.00
12879;BME280;20617;49.476;10.986;2023-07-20T06:09:04;98164.91;;;19.03;100.00
12879;BME280;20617;49.476;10.986;2023-07-20T06:11:11;98148.72;;;18.96;100.00
12879;BME280;20617;49.476;10.986;2023-07-20T06:13:16;98151.47;;;18.95;100.00
12879;BME280;20617;49.476;10.986;2023-07-20T06:15:28;98160.97;;;18.97;100.00
12879;BME280;20617;49.476;10.986;2023-07-20T06:17:33;98155.56;;;19.10;100.00
12879;BME280;20617;49.476;10.986;2023-07-20T06:19:42;98142.25;;;19.23;100.00
12879;BME280;20617;49.476;10.986;2023-07-20T06:21:48;98139.94;;;19.30;100.00
12879;BME280;20617;49.476;10.986;2023-07-20T06:23:59;98133.19;;;19.48;100.00
12879;BME280;20617;49.476;10.986;2023-07-20T06:26:05;98127.66;;;19.51;100.00
12879;BME280;20617;49.476;10.986;2023-07-20T06:28:15;98129.31;;;19.63;100.00
12879;BME280;20617;49.476;10.986;2023-07-20T06:30:24;98123.56;;;19.58;100.00
12879;BME280;20617;49.476;10.986;2023-07-20T06:32:31;98125.50;;;19.67;100.00
12879;BME280;20617;49.476;10.986;2023-07-20T06:34:34;98118.13;;;19.82;100.00
12879;BME280;20617;49.476;10.986;2023-07-20T06:36:41;98115.91;;;19.99;100.00
12879;BME280;20617;49.476;10.986;2023-07-20T06:38:46;98116.28;;;20.15;100.00
12879;BME280;20617;49.476;10.986;2023-07-20T06:40:52;98115.50;;;20.24;100.00
12879;BME280;20617;49.476;10.986;2023-07-20T06:42:57;98102.38;;;20.34;100.00
12879;BME280;20617;49.476;10.986;2023-07-20T06:45:07;98102.59;;;20.52;100.00
12879;BME280;20617;49.476;10.986;2023-07-20T06:47:13;98090.16;;;20.64;100.00
12879;BME280;20617;49.476;10.986;2023-07-20T06:49:27;98078.50;;;20.45;100.00
12879;BME280;20617;49.476;10.986;2023-07-20T06:51:33;98084.22;;;20.50;100.00
12879;BME280;20617;49.476;10.986;2023-07-20T06:53:40;98073.13;;;20.56;100.00
12879;BME280;20617;49.476;10.986;2023-07-20T06:55:45;98073.13;;;20.56;100.00
12879;BME280;20617;49.476;10.986;2023-07-20T06:57:50;98070.09;;;20.61;100.00
12879;BME280;20617;49.476;10.986;2023-07-20T07:00:00;98072.50;;;20.64;100.00
12879;BME280;20617;49.476;10.986;2023-07-20T07:02:06;98075.53;;;20.60;100.00
12879;BME280;20617;49.476;10.986;2023-07-20T07:04:14;98075.84;;;20.66;100.00
12879;BME280;20617;49.476;10.986;2023-07-20T07:06:27;98075.69;;;20.68;100.00
12879;BME280;20617;49.476;10.986;2023-07-20T07:08:32;98062.31;;;20.60;100.00
12879;BME280;20617;49.476;10.986;2023-07-20T07:10:37;98066.94;;;20.67;100.00
12879;BME280;20617;49.476;10.986;2023-07-20T07:12:42;98060.81;;;20.67;100.00
12879;BME280;20617;49.476;10.986;2023-07-20T07:14:48;98067.63;;;20.60;100.00
12879;BME280;20617;49.476;10.986;2023-07-20T07:16:54;98065.72;;;20.71;100.00
12879;BME280;20617;49.476;10.986;2023-07-20T07:18:59;98059.44;;;20.72;100.00
12879;BME280;20617;49.476;10.986;2023-07-20T07:21:07;98067.28;;;20.84;100.00
12879;BME280;20617;49.476;10.986;2023-07-20T07:23:15;98072.31;;;20.96;100.00
12879;BME280;20617;49.476;10.986;2023-07-20T07:25:20;98057.56;;;20.94;100.00
12879;BME280;20617;49.476;10.986;2023-07-20T07:27:27;98061.34;;;21.01;100.00
12879;BME280;20617;49.476;10.986;2023-07-20T07:29:32;98059.81;;;20.98;100.00
12879;BME280;20617;49.476;10.986;2023-07-20T07:31:37;98063.00;;;20.92;100.00
12879;BME280;20617;49.476;10.986;2023-07-20T07:33:42;98059.97;;;21.07;100.00
12879;BME280;20617;49.476;10.986;2023-07-20T07:35:49;98058.44;;;21.14;100.00
12879;BME280;20617;49.476;10.986;2023-07-20T07:37:54;98058.63;;;21.32;100.00
12879;BME280;20617;49.476;10.986;2023-07-20T07:40:08;98059.34;;;21.43;100.00
12879;BME280;20617;49.476;10.986;2023-07-20T07:42:16;98056.44;;;21.46;100.00
12879;BME280;20617;49.476;10.986;2023-07-20T07:44:26;98057.69;;;21.42;100.00
12879;BME280;20617;49.476;10.986;2023-07-20T07:46:32;98051.41;;;21.43;100.00
12879;BME280;20617;49.476;10.986;2023-07-20T07:48:39;98058.97;;;21.38;100.00
12879;BME280;20617;49.476;10.986;2023-07-20T07:50:45;98060.78;;;21.47;100.00
12879;BME280;20617;49.476;10.986;2023-07-20T07:52:52;98058.25;;;21.75;100.00
12879;BME280;20617;49.476;10.986;2023-07-20T07:54:56;98063.84;;;21.91;100.00
12879;BME280;20617;49.476;10.986;2023-07-20T07:57:05;98066.06;;;21.86;100.00
12879;BME280;20617;49.476;10.986;2023-07-20T07:59:12;98064.78;;;22.10;100.00
12879;BME280;20617;49.476;10.986;2023-07-20T08:01:17;98064.25;;;22.26;100.00
12879;BME280;20617;49.476;10.986;2023-07-20T08:03:24;98067.03;;;22.24;100.00
12879;BME280;20617;49.476;10.986;2023-07-20T08:05:29;98062.31;;;22.08;100.00
12879;BME280;20617;49.476;10.986;2023-07-20T08:07:35;98060.63;;;22.17;100.00
12879;BME280;20617;49.476;10.986;2023-07-20T08:09:41;98063.09;;;22.38;100.00
12879;BME280;20617;49.476;10.986;2023-07-20T08:11:47;98063.09;;;22.38;100.00
12879;BME280;20617;49.476;10.986;2023-07-20T08:13:55;98064.50;;;22.32;100.00
12879;BME280;20617;49.476;10.986;2023-07-20T08:16:01;98068.13;;;22.41;100.00
12879;BME280;20617;49.476;10.986;2023-07-20T08:18:18;98066.50;;;22.21;100.00
12879;BME280;20617;49.476;10.986;2023-07-20T08:20:25;98063.56;;;22.14;100.00
12879;BME280;20617;49.476;10.986;2023-07-20T08:22:31;98064.66;;;22.21;100.00
12879;BME280;20617;49.476;10.986;2023-07-20T08:24:39;98067.88;;;22.05;100.00
12879;BME280;20617;49.476;10.986;2023-07-20T08:26:44;98061.88;;;22.03;100.00
12879;BME280;20617;49.476;10.986;2023-07-20T08:28:49;98064.13;;;22.08;100.00
12879;BME280;20617;49.476;10.986;2023-07-20T08:30:54;98060.84;;;22.43;100.00
12879;BME280;20617;49.476;10.986;2023-07-20T08:32:59;98065.59;;;22.40;100.00
12879;BME280;20617;49.476;10.986;2023-07-20T08:35:05;98061.94;;;22.50;100.00
12879;BME280;20617;49.476;10.986;2023-07-20T08:37:10;98064.06;;;22.74;100.00
12879;BME280;20617;49.476;10.986;2023-07-20T08:39:14;98054.16;;;22.76;100.00
12879;BME280;20617;49.476;10.986;2023-07-20T08:41:20;98055.97;;;22.76;100.00
12879;BME280;20617;49.476;10.986;2023-07-20T08:43:26;98066.38;;;22.59;100.00
12879;BME280;20617;49.476;10.986;2023-07-20T08:45:34;98063.88;;;22.58;100.00
12879;BME280;20617;49.476;10.986;2023-07-20T08:47:47;98066.72;;;22.74;100.00
12879;BME280;20617;49.476;10.986;2023-07-20T08:49:54;98056.47;;;22.99;100.00
12879;BME280;20617;49.476;10.986;2023-07-20T08:52:00;98064.44;;;22.99;100.00
12879;BME280;20617;49.476;10.986;2023-07-20T08:54:06;98064.84;;;22.94;100.00
12879;BME280;20617;49.476;10.986;2023-07-20T08:56:14;98067.66;;;22.93;100.00
12879;BME280;20617;49.476;10.986;2023-07-20T08:58:25;98066.91;;;22.73;100.00
12879;BME280;20617;49.476;10.986;2023-07-20T09:00:31;98072.25;;;22.53;100.00
12879;BME280;20617;49.476;10.986;2023-07-20T09:02:39;98065.72;;;22.48;100.00
12879;BME280;20617;49.476;10.986;2023-07-20T09:04:48;98061.25;;;22.48;100.00
12879;BME280;20617;49.476;10.986;2023-07-20T09:06:54;98077.16;;;22.58;100.00
12879;BME280;20617;49.476;10.986;2023-07-20T09:09:00;98071.56;;;22.51;100.00
12879;BME280;20617;49.476;10.986;2023-07-20T09:11:07;98064.72;;;22.58;100.00
12879;BME280;20617;49.476;10.986;2023-07-20T09:13:14;98063.72;;;22.69;100.00
12879;BME280;20617;49.476;10.986;2023-07-20T09:15:22;98065.13;;;22.91;100.00
12879;BME280;20617;49.476;10.986;2023-07-20T09:17:28;98070.78;;;22.78;100.00
12879;BME280;20617;49.476;10.986;2023-07-20T09:19:33;98071.38;;;22.72;100.00
12879;BME280;20617;49.476;10.986;2023-07-20T09:21:44;98068.31;;;22.67;100.00
12879;BME280;20617;49.476;10.986;2023-07-20T09:23:49;98068.03;;;22.70;100.00
12879;BME280;20617;49.476;10.986;2023-07-20T09:26:01;98064.72;;;22.86;100.00
12879;BME280;20617;49.476;10.986;2023-07-20T09:28:14;98059.81;;;22.91;100.00
12879;BME280;20617;49.476;10.986;2023-07-20T09:30:25;98057.53;;;23.06;100.00
12879;BME280;20617;49.476;10.986;2023-07-20T09:32:38;98056.16;;;23.02;100.00
12879;BME280;20617;49.476;10.986;2023-07-20T09:34:49;98049.53;;;23.16;100.00
12879;BME280;20617;49.476;10.986;2023-07-20T09:36:58;98060.16;;;23.16;100.00
12879;BME280;20617;49.476;10.986;2023-07-20T09:39:04;98059.69;;;22.93;100.00
12879;BME280;20617;49.476;10.986;2023-07-20T09:41:13;98071.38;;;22.63;100.00
12879;BME280;20617;49.476;10.986;2023-07-20T09:43:22;98069.72;;;22.62;100.00
12879;BME280;20617;49.476;10.986;2023-07-20T09:45:33;98070.16;;;22.57;100.00
12879;BME280;20617;49.476;10.986;2023-07-20T09:47:41;98061.75;;;22.62;100.00
12879;BME280;20617;49.476;10.986;2023-07-20T09:49:46;98055.75;;;22.59;100.00
12879;BME280;20617;49.476;10.986;2023-07-20T09:51:55;98062.72;;;22.70;100.00
12879;BME280;20617;49.476;10.986;2023-07-20T09:54:05;98052.97;;;22.61;96.46
12879;BME280;20617;49.476;10.986;2023-07-20T09:56:11;98056.72;;;22.68;97.88
12879;BME280;20617;49.476;10.986;2023-07-20T09:58:18;98050.38;;;22.79;95.88
12879;BME280;20617;49.476;10.986;2023-07-20T10:00:24;98054.38;;;22.93;94.74
12879;BME280;20617;49.476;10.986;2023-07-20T10:02:33;98045.25;;;23.05;96.89
12879;BME280;20617;49.476;10.986;2023-07-20T10:04:38;98050.78;;;23.12;96.17
12879;BME280;20617;49.476;10.986;2023-07-20T10:06:47;98058.88;;;22.82;97.69
12879;BME280;20617;49.476;10.986;2023-07-20T10:08:53;98061.06;;;22.69;98.19
12879;BME280;20617;49.476;10.986;2023-07-20T10:11:03;98049.97;;;22.74;100.00
12879;BME280;20617;49.476;10.986;2023-07-20T10:13:14;98043.50;;;22.86;96.77
12879;BME280;20617;49.476;10.986;2023-07-20T10:15:24;98046.91;;;23.06;96.61
12879;BME280;20617;49.476;10.986;2023-07-20T10:17:31;98040.56;;;23.17;97.59
12879;BME280;20617;49.476;10.986;2023-07-20T10:19:42;98046.41;;;23.20;93.35
12879;BME280;20617;49.476;10.986;2023-07-20T10:21:57;98048.00;;;23.13;88.70
12879;BME280;20617;49.476;10.986;2023-07-20T10:24:06;98034.03;;;23.11;91.23
12879;BME280;20617;49.476;10.986;2023-07-20T10:26:16;98037.97;;;23.07;90.98
12879;BME280;20617;49.476;10.986;2023-07-20T10:28:25;98037.00;;;23.26;92.32
12879;BME280;20617;49.476;10.986;2023-07-20T10:30:30;98037.31;;;23.41;89.03
12879;BME280;20617;49.476;10.986;2023-07-20T10:32:33;98033.00;;;23.40;84.79
12879;BME280;20617;49.476;10.986;2023-07-20T10:34:39;98033.31;;;23.37;85.10
12879;BME280;20617;49.476;10.986;2023-07-20T10:36:44;98018.50;;;23.34;88.75
12879;BME280;20617;49.476;10.986;2023-07-20T10:38:54;98027.88;;;23.56;88.67
12879;BME280;20617;49.476;10.986;2023-07-20T10:40:59;98011.69;;;23.49;87.51
12879;BME280;20617;49.476;10.986;2023-07-20T10:43:09;98019.66;;;23.49;89.40
12879;BME280;20617;49.476;10.986;2023-07-20T10:45:14;98012.28;;;23.43;89.99
12879;BME280;20617;49.476;10.986;2023-07-20T10:47:21;98015.41;;;23.57;81.43
12879;BME280;20617;49.476;10.986;2023-07-20T10:49:27;98008.06;;;23.50;72.04
12879;BME280;20617;49.476;10.986;2023-07-20T10:51:39;98008.66;;;23.62;73.91
12879;BME280;20617;49.476;10.986;2023-07-20T10:53:45;98005.22;;;23.88;69.39
12879;BME280;20617;49.476;10.986;2023-07-20T10:55:49;98012.97;;;23.81;70.20
12879;BME280;20617;49.476;10.986;2023-07-20T10:58:14;98012.84;;;23.83;73.10